EDT,Max TemperatureF,Mean TemperatureF,Min TemperatureF,Max Dew PointF,MeanDew PointF,Min DewpointF,Max Humidity, Mean Humidity, Min Humidity, Max Sea Level PressureIn, Mean Sea Level PressureIn, Min Sea Level PressureIn, Max VisibilityMiles, Mean VisibilityMiles, Min VisibilityMiles, Max Wind SpeedMPH, Mean Wind SpeedMPH, Max Gust SpeedMPH,PrecipitationIn, CloudCover, Events, WindDirDegrees
2013-6-1,90,80,70,67,64,61,84,58,38,30.05,29.99,29.92,10,10,10,15,7,21,0.00,0,,213
2013-6-2,87,80,73,67,65,61,76,62,49,29.94,29.87,29.81,10,10,10,17,11,28,0.00,1,Rain-Thunderstorm,224
2013-6-3,77,72,66,68,66,59,94,84,71,29.89,29.85,29.82,10,7,0,13,5,24,1.31,7,Fog-Rain,238
2013-6-4,75,65,55,57,44,41,73,47,29,30.13,30.05,29.93,10,10,10,15,8,21,0.00,0,,330
2013-6-5,77,63,51,53,44,39,81,47,30,30.22,30.15,30.11,10,10,10,12,5,,0.00,0,,81
2013-6-6,73,64,55,60,55,48,100,79,43,30.14,30.08,29.99,10,7,0,15,6,21,0.07,5,Fog-Rain,112
2013-6-7,66,63,60,65,62,59,97,93,88,29.98,29.76,29.60,10,4,1,20,10,26,3.37,8,Rain-Thunderstorm,61
2013-6-8,78,68,60,73,71,65,100,93,81,30.09,29.84,29.60,10,9,2,15,10,21,0.27,5,Rain,302
2013-6-9,82,72,62,75,65,55,100,71,45,30.21,30.16,30.10,10,10,10,10,4,,0.00,2,,262
2013-6-10,75,70,64,71,70,68,100,100,100,30.16,29.99,29.81,10,6,1,15,5,18,2.00,7,Rain,115
2013-6-11,82,74,68,79,77,75,100,92,85,29.80,29.76,29.69,10,10,5,20,10,28,0.11,4,Rain,251
2013-6-12,82,74,66,71,60,55,100,61,42,29.86,29.82,29.78,10,10,10,15,10,23,0.00,0,,304
2013-6-13,80,72,61,70,63,55,100,82,65,29.85,29.60,29.42,10,8,1,13,6,,0.36,6,Rain-Thunderstorm,116
2013-6-14,77,65,55,61,55,50,94,78,48,29.94,29.77,29.55,10,9,2,16,11,23,0.22,5,Rain-Thunderstorm,358
2013-6-15,82,69,57,58,54,52,93,60,38,30.05,29.99,29.95,10,10,10,17,7,21,0.00,1,,293
2013-6-16,82,71,61,66,60,54,87,69,47,30.03,29.93,29.84,10,10,9,15,4,31,0.00,1,Rain,241
2013-6-17,87,75,64,66,64,62,97,71,46,29.94,29.91,29.86,10,9,4,14,5,20,0.00,1,,247
2013-6-18,78,71,63,63,60,54,97,71,57,29.92,29.87,29.84,10,7,2,13,3,,0.30,5,Rain-Thunderstorm,114
2013-6-19,78,69,60,63,54,47,94,66,36,30.19,30.03,29.90,10,10,8,15,7,,0.00,3,,28
2013-6-20,79,66,55,58,53,50,90,59,42,30.30,30.26,30.20,10,10,10,10,3,17,0.00,1,,213
2013-6-21,82,69,57,56,52,48,84,53,38,30.33,30.29,30.25,10,10,10,8,3,,0.00,0,,192
2013-6-22,84,70,57,65,60,53,90,65,47,30.28,30.23,30.14,10,10,10,9,2,,0.00,1,,211
2013-6-23,86,74,64,73,67,60,91,77,55,30.22,30.15,30.08,10,10,10,10,4,17,0.01,3,Rain,200
2013-6-24,93,80,70,72,67,61,93,68,47,30.11,30.06,30.02,10,10,4,13,6,18,0.01,1,Rain-Thunderstorm,252
2013-6-25,91,80,69,75,68,64,87,72,46,30.01,29.94,29.86,10,9,1,16,5,45,0.12,1,Rain-Thunderstorm,246
2013-6-26,90,79,69,72,68,64,94,72,48,29.90,29.85,29.80,10,9,2,13,6,29,0.18,3,Rain-Thunderstorm,262
2013-6-27,89,80,72,73,71,69,97,84,55,29.81,29.67,29.59,10,7,1,16,5,25,0.67,5,Rain-Thunderstorm,187
2013-6-28,84,77,69,71,68,64,93,78,56,29.59,29.55,29.50,10,10,9,14,8,21,0.06,5,Rain-Thunderstorm,238
2013-6-29,87,76,68,70,66,60,100,72,43,29.72,29.61,29.52,10,9,4,13,6,20,0.00,2,,220
2013-6-30,84,78,73,74,72,69,96,87,71,29.91,29.82,29.73,10,7,2,10,3,,0.16,5,Rain-Thunderstorm,165